createdAt,value
2024-05-09T00:01:45.275Z,9.64
2024-05-09T00:03:49.887Z,9.63
2024-05-09T00:05:51.601Z,9.60
2024-05-09T00:07:53.349Z,9.66
2024-05-09T00:09:55.144Z,9.66
2024-05-09T00:11:56.937Z,9.69
2024-05-09T00:13:58.633Z,9.62
2024-05-09T00:16:00.346Z,9.67
2024-05-09T00:18:02.376Z,9.65
2024-05-09T00:20:14.399Z,9.66
2024-05-09T00:22:22.065Z,9.53
2024-05-09T00:24:23.738Z,9.56
2024-05-09T00:26:25.482Z,9.39
2024-05-09T00:28:27.210Z,9.50
2024-05-09T00:30:34.301Z,9.46
2024-05-09T00:32:38.420Z,9.33
2024-05-09T00:34:40.172Z,9.40
2024-05-09T00:36:44.468Z,9.38
2024-05-09T00:38:46.195Z,9.35
2024-05-09T00:40:47.953Z,9.31
2024-05-09T00:42:49.698Z,9.12
2024-05-09T00:44:51.381Z,9.22
2024-05-09T00:46:53.157Z,9.13
2024-05-09T00:48:55.671Z,9.16
2024-05-09T00:50:57.816Z,9.14
2024-05-09T00:53:02.519Z,9.24
2024-05-09T00:55:04.857Z,9.22
2024-05-09T00:57:06.585Z,9.16
2024-05-09T00:59:08.618Z,9.10
2024-05-09T01:01:10.792Z,9.11
2024-05-09T01:03:14.062Z,9.04
2024-05-09T01:05:16.545Z,9.08
2024-05-09T01:07:18.425Z,9.04
2024-05-09T01:09:22.794Z,9.03
2024-05-09T01:11:24.725Z,8.98
2024-05-09T01:13:26.477Z,8.95
2024-05-09T01:15:28.180Z,8.89
2024-05-09T01:17:30.008Z,8.90
2024-05-09T01:19:32.092Z,8.89
2024-05-09T01:21:33.820Z,8.88
2024-05-09T01:23:38.344Z,8.83
2024-05-09T01:25:40.259Z,8.83
2024-05-09T01:27:41.964Z,8.82
2024-05-09T01:29:43.673Z,8.77
2024-05-09T01:31:46.956Z,8.74
2024-05-09T01:33:48.771Z,8.65
2024-05-09T01:35:50.531Z,8.60
2024-05-09T01:37:52.713Z,8.66
2024-05-09T01:39:57.076Z,8.66
2024-05-09T01:41:58.733Z,8.57
2024-05-09T01:44:00.512Z,8.59
2024-05-09T01:46:02.256Z,8.77
2024-05-09T01:48:04.844Z,8.68
2024-05-09T01:50:09.149Z,8.60
2024-05-09T01:52:12.640Z,8.65
2024-05-09T01:54:14.329Z,8.57
2024-05-09T01:56:18.690Z,8.48
2024-05-09T01:58:20.398Z,8.47
2024-05-09T02:00:30.581Z,8.46
2024-05-09T02:02:39.820Z,8.49
2024-05-09T02:04:41.662Z,8.45
2024-05-09T02:06:43.462Z,8.44
2024-05-09T02:08:45.700Z,8.64
2024-05-09T02:10:48.658Z,8.55
2024-05-09T02:12:53.298Z,8.52
2024-05-09T02:14:54.971Z,8.40
2024-05-09T02:16:56.662Z,8.41
2024-05-09T02:18:58.459Z,8.38
2024-05-09T02:21:00.333Z,8.31
2024-05-09T02:23:02.232Z,8.35
2024-05-09T02:25:04.267Z,8.33
2024-05-09T02:27:05.962Z,8.31
2024-05-09T02:29:10.479Z,8.27
2024-05-09T02:31:12.442Z,8.12
2024-05-09T02:33:14.703Z,8.22
2024-05-09T02:35:16.716Z,8.31
2024-05-09T02:37:18.445Z,8.26
2024-05-09T02:39:20.087Z,8.24
2024-05-09T02:41:21.828Z,8.27
2024-05-09T02:43:23.685Z,8.29
2024-05-09T02:45:27.983Z,8.19
2024-05-09T02:47:29.996Z,8.19
2024-05-09T02:49:31.869Z,8.12
2024-05-09T02:51:33.584Z,8.10
2024-05-09T02:53:35.368Z,7.99
2024-05-09T02:55:37.191Z,7.92
2024-05-09T02:57:38.973Z,7.86
2024-05-09T02:59:40.631Z,7.90
2024-05-09T03:01:45.078Z,7.86
2024-05-09T03:03:46.984Z,7.92
2024-05-09T03:05:48.974Z,7.93
2024-05-09T03:07:50.752Z,7.83
2024-05-09T03:09:52.406Z,7.80
2024-05-09T03:11:54.183Z,7.79
2024-05-09T03:13:55.910Z,7.80
2024-05-09T03:15:59.581Z,7.74
2024-05-09T03:18:05.412Z,7.83
2024-05-09T03:20:14.633Z,7.74
2024-05-09T03:22:22.105Z,7.69
2024-05-09T03:24:23.760Z,7.75
2024-05-09T03:26:25.426Z,7.69
2024-05-09T03:28:27.143Z,7.72
2024-05-09T03:30:39.043Z,7.84
2024-05-09T03:32:44.199Z,7.83
2024-05-09T03:34:48.593Z,7.66
2024-05-09T03:36:50.277Z,7.72
2024-05-09T03:38:51.950Z,7.63
2024-05-09T03:40:53.680Z,7.59
2024-05-09T03:42:55.354Z,7.57
2024-05-09T03:44:58.356Z,7.62
2024-05-09T03:47:00.085Z,7.67
2024-05-09T03:49:01.877Z,7.75
2024-05-09T03:51:07.046Z,7.67
2024-05-09T03:53:10.670Z,7.68
2024-05-09T03:55:12.655Z,7.78
2024-05-09T03:57:14.354Z,7.69
2024-05-09T03:59:16.073Z,7.72
2024-05-09T04:01:18.786Z,7.63
2024-05-09T04:03:20.906Z,7.67
2024-05-09T04:05:22.697Z,7.65
2024-05-09T04:07:27.040Z,7.69
2024-05-09T04:09:28.769Z,7.66
2024-05-09T04:11:30.594Z,7.57
2024-05-09T04:13:32.285Z,7.42
2024-05-09T04:15:33.952Z,7.43
2024-05-09T04:17:35.875Z,7.51
2024-05-09T04:19:37.800Z,7.42
2024-05-09T04:21:39.506Z,7.54
2024-05-09T04:23:43.840Z,7.65
2024-05-09T04:25:45.956Z,7.59
2024-05-09T04:27:47.766Z,7.57
2024-05-09T04:29:49.423Z,7.51
2024-05-09T04:31:51.208Z,7.50
2024-05-09T04:33:53.150Z,7.56
2024-05-09T04:35:54.851Z,7.53
2024-05-09T04:37:56.537Z,7.56
2024-05-09T04:40:00.846Z,7.69
2024-05-09T04:42:02.505Z,7.64
2024-05-09T04:44:04.544Z,7.52
2024-05-09T04:46:06.270Z,7.58
2024-05-09T04:48:08.825Z,7.61
2024-05-09T04:50:14.536Z,7.62
2024-05-09T04:52:19.238Z,7.65
2024-05-09T04:54:30.077Z,7.76
2024-05-09T04:56:40.292Z,7.69
2024-05-09T04:58:42.023Z,7.75
2024-05-09T05:00:43.785Z,7.77
2024-05-09T05:02:45.658Z,7.80
2024-05-09T05:04:47.566Z,7.87
2024-05-09T05:06:49.371Z,7.96
2024-05-09T05:08:51.050Z,7.82
2024-05-09T05:10:52.900Z,7.94
2024-05-09T05:12:57.343Z,7.94
2024-05-09T05:14:58.999Z,8.07
2024-05-09T05:17:00.765Z,8.15
2024-05-09T05:19:02.596Z,8.29
2024-05-09T05:21:05.010Z,8.37
2024-05-09T05:23:10.582Z,8.47
2024-05-09T05:25:12.621Z,8.49
2024-05-09T05:27:14.326Z,8.55
2024-05-09T05:29:20.792Z,8.62
2024-05-09T05:31:22.734Z,8.77
2024-05-09T05:33:24.600Z,8.67
2024-05-09T05:35:27.187Z,8.71
2024-05-09T05:37:28.987Z,8.95
2024-05-09T05:39:30.678Z,8.95
2024-05-09T05:41:32.366Z,8.97
2024-05-09T05:43:34.276Z,9.05
2024-05-09T05:45:39.215Z,9.14
2024-05-09T05:47:41.518Z,9.22
2024-05-09T05:49:43.382Z,9.36
2024-05-09T05:51:45.045Z,9.36
2024-05-09T05:53:46.762Z,9.44
2024-05-09T05:55:48.514Z,9.44
2024-05-09T05:57:50.251Z,9.49
2024-05-09T05:59:52.024Z,9.29
2024-05-09T06:01:56.384Z,9.38
2024-05-09T06:03:58.225Z,9.53
2024-05-09T06:06:02.787Z,9.59
2024-05-09T06:08:05.483Z,9.53
2024-05-09T06:10:16.952Z,9.15
2024-05-09T06:12:23.083Z,9.50
2024-05-09T06:14:24.896Z,9.67
2024-05-09T06:16:26.599Z,9.72
2024-05-09T06:18:31.082Z,9.89
2024-05-09T06:20:36.482Z,9.92
2024-05-09T06:22:39.884Z,10.12
2024-05-09T06:24:41.573Z,10.27
2024-05-09T06:26:44.167Z,10.42
2024-05-09T06:28:46.097Z,10.41
2024-05-09T06:30:47.795Z,10.51
2024-05-09T06:32:49.632Z,10.63
2024-05-09T06:34:54.041Z,10.58
2024-05-09T06:36:55.758Z,10.66
2024-05-09T06:38:57.488Z,10.73
2024-05-09T06:40:59.216Z,10.84
2024-05-09T06:43:00.905Z,10.99
2024-05-09T06:45:02.589Z,10.99
2024-05-09T06:47:04.677Z,10.93
2024-05-09T06:49:06.514Z,11.01
2024-05-09T06:51:11.007Z,11.17
2024-05-09T06:53:14.060Z,11.12
2024-05-09T06:55:15.905Z,11.11
2024-05-09T06:57:17.573Z,11.20
2024-05-09T06:59:19.388Z,11.18
2024-05-09T07:01:21.166Z,11.27
2024-05-09T07:03:23.036Z,11.14
2024-05-09T07:05:24.923Z,11.09
2024-05-09T07:07:29.375Z,11.04
2024-05-09T07:09:31.212Z,11.24
2024-05-09T07:11:33.056Z,11.35
2024-05-09T07:13:34.831Z,11.43
2024-05-09T07:15:36.506Z,11.45
2024-05-09T07:17:38.431Z,11.50
2024-05-09T07:19:40.316Z,11.54
2024-05-09T07:21:42.072Z,11.58
2024-05-09T07:23:47.438Z,11.79
2024-05-09T07:25:49.452Z,11.78
2024-05-09T07:27:51.265Z,11.74
2024-05-09T07:29:52.962Z,11.79
2024-05-09T07:31:54.696Z,11.86
2024-05-09T07:33:56.485Z,11.93
2024-05-09T07:35:58.241Z,12.00
2024-05-09T07:37:59.935Z,12.13
2024-05-09T07:40:07.412Z,12.18
2024-05-09T07:42:09.221Z,12.03
2024-05-09T07:44:10.942Z,12.19
2024-05-09T07:47:14.091Z,12.23
2024-05-09T07:50:34.335Z,12.24
2024-05-09T07:52:39.248Z,12.39
2024-05-09T07:53:38.152Z,12.34
2024-05-09T07:55:42.334Z,12.39
2024-05-09T07:57:44.402Z,12.51
2024-05-09T07:59:46.123Z,12.48
2024-05-09T08:01:47.897Z,12.56
2024-05-09T08:03:49.993Z,12.53
2024-05-09T08:05:52.093Z,12.48
2024-05-09T08:07:55.344Z,12.63
2024-05-09T08:09:57.067Z,12.65
2024-05-09T08:12:01.408Z,12.70
2024-05-09T08:14:03.088Z,12.92
2024-05-09T08:16:06.301Z,13.10
2024-05-09T08:18:08.504Z,13.12
2024-05-09T08:20:11.393Z,13.11
2024-05-09T08:22:15.239Z,13.22
2024-05-09T08:24:16.946Z,13.17
2024-05-09T08:26:18.669Z,13.28
2024-05-09T08:28:23.144Z,13.24
2024-05-09T08:30:32.572Z,13.25
2024-05-09T08:32:39.895Z,13.41
2024-05-09T08:34:41.654Z,13.30
2024-05-09T08:36:43.394Z,13.37
2024-05-09T08:38:45.129Z,13.50
2024-05-09T08:40:47.723Z,13.67
2024-05-09T08:42:50.965Z,13.77
2024-05-09T08:44:55.398Z,13.85
2024-05-09T08:46:57.207Z,13.84
2024-05-09T08:49:00.655Z,13.94
2024-05-09T08:51:02.577Z,13.90
2024-05-09T08:53:04.561Z,14.04
2024-05-09T08:55:06.955Z,14.10
2024-05-09T08:57:09.177Z,13.99
2024-05-09T08:59:14.588Z,14.14
2024-05-09T09:01:19.343Z,14.13
2024-05-09T09:03:25.049Z,14.09
2024-05-09T09:05:31.431Z,14.22
2024-05-09T09:07:34.189Z,14.34
2024-05-09T09:09:36.869Z,14.36
2024-05-09T09:11:38.628Z,14.18
2024-05-09T09:13:40.375Z,14.37
2024-05-09T09:15:48.487Z,14.16
2024-05-09T09:18:00.218Z,14.34
2024-05-09T09:20:02.788Z,14.32
2024-05-09T09:22:05.196Z,14.43
2024-05-09T09:24:08.716Z,14.51
2024-05-09T09:26:15.761Z,14.43
2024-05-09T09:28:17.690Z,14.43
2024-05-09T09:30:31.674Z,14.44
2024-05-09T09:32:38.530Z,14.60
2024-05-09T09:34:42.968Z,14.61
2024-05-09T09:36:45.262Z,14.56
2024-05-09T09:38:47.614Z,14.61
2024-05-09T09:40:50.490Z,14.68
2024-05-09T09:42:57.658Z,14.65
2024-05-09T09:45:04.839Z,14.66
2024-05-09T09:47:08.724Z,14.86
2024-05-09T09:49:10.519Z,14.95
2024-05-09T09:51:15.749Z,14.92
2024-05-09T09:53:18.553Z,15.01
2024-05-09T09:55:22.110Z,15.19
2024-05-09T09:57:24.746Z,15.15
2024-05-09T09:59:27.952Z,15.10
2024-05-09T10:01:29.869Z,14.85
2024-05-09T10:03:31.818Z,14.67
2024-05-09T10:05:34.452Z,14.51
2024-05-09T10:07:41.679Z,14.39
2024-05-09T10:09:43.568Z,14.52
2024-05-09T10:11:51.736Z,14.63
2024-05-09T10:13:53.933Z,14.67
2024-05-09T10:15:55.874Z,14.73
2024-05-09T10:18:04.935Z,14.87
2024-05-09T10:20:14.804Z,14.98
2024-05-09T10:22:26.574Z,15.26
2024-05-09T10:24:46.036Z,15.31
2024-05-09T10:26:51.991Z,15.48
2024-05-09T10:28:54.282Z,15.72
2024-05-09T10:31:09.221Z,15.77
2024-05-09T10:33:11.170Z,15.85
2024-05-09T10:35:13.325Z,15.88
2024-05-09T10:37:15.518Z,15.59
2024-05-09T10:39:17.632Z,15.81
2024-05-09T10:41:23.387Z,15.80
2024-05-09T10:43:25.826Z,15.74
2024-05-09T10:45:28.035Z,15.78
2024-05-09T10:47:29.967Z,15.77
2024-05-09T10:49:31.996Z,15.70
2024-05-09T10:51:34.023Z,15.48
2024-05-09T10:53:40.873Z,15.40
2024-05-09T10:55:42.759Z,15.40
2024-05-09T10:57:47.092Z,15.57
2024-05-09T10:59:49.846Z,15.67
2024-05-09T11:01:51.612Z,15.93
2024-05-09T11:03:53.635Z,16.19
2024-05-09T11:05:55.666Z,16.29
2024-05-09T11:07:57.606Z,16.42
2024-05-09T11:09:59.675Z,16.38
2024-05-09T11:12:01.632Z,16.61
2024-05-09T11:14:14.038Z,16.78
2024-05-09T11:16:19.717Z,16.92
2024-05-09T11:18:25.032Z,16.78
2024-05-09T11:20:35.495Z,16.37
2024-05-09T11:22:37.340Z,16.37
2024-05-09T11:24:40.009Z,16.49
2024-05-09T11:26:42.915Z,16.74
2024-05-09T11:28:45.406Z,16.95
2024-05-09T11:30:50.703Z,16.96
2024-05-09T11:32:52.541Z,16.76
2024-05-09T11:34:54.333Z,16.83
2024-05-09T11:36:56.080Z,17.06
2024-05-09T11:38:57.808Z,16.89
2024-05-09T11:40:59.742Z,16.83
2024-05-09T11:43:01.641Z,17.09
2024-05-09T11:45:03.496Z,17.08
2024-05-09T11:47:07.816Z,16.92
2024-05-09T11:49:10.077Z,16.99
2024-05-09T11:51:11.849Z,16.92
2024-05-09T11:53:13.519Z,16.94
2024-05-09T11:55:15.495Z,16.98
2024-05-09T11:57:17.257Z,17.11
2024-05-09T11:59:18.976Z,17.42
2024-05-09T12:01:21.348Z,17.38
2024-05-09T12:03:26.440Z,17.46
2024-05-09T12:05:28.369Z,17.73
2024-05-09T12:07:30.438Z,17.92
2024-05-09T12:09:32.370Z,17.59
2024-05-09T12:11:34.318Z,17.39
2024-05-09T12:13:36.069Z,17.31
2024-05-09T12:15:38.767Z,17.30
2024-05-09T12:17:40.977Z,17.22
2024-05-09T12:19:45.407Z,17.20
2024-05-09T12:21:47.175Z,17.51
2024-05-09T12:23:48.860Z,17.33
2024-05-09T12:25:50.722Z,17.35
2024-05-09T12:27:52.515Z,17.90
2024-05-09T12:29:54.216Z,17.73
2024-05-09T12:31:56.094Z,17.57
2024-05-09T12:33:58.144Z,17.23
2024-05-09T12:36:02.620Z,16.90
2024-05-09T12:38:04.880Z,16.92
2024-05-09T12:40:15.802Z,16.69
2024-05-09T12:42:27.166Z,16.86
2024-05-09T12:44:30.276Z,16.88
2024-05-09T12:46:32.181Z,17.09
2024-05-09T12:48:34.766Z,17.06
2024-05-09T12:50:37.077Z,17.14
2024-05-09T12:52:41.548Z,17.00
2024-05-09T12:54:43.454Z,17.12
2024-05-09T12:56:45.221Z,17.15
2024-05-09T12:58:51.075Z,17.30
2024-05-09T13:00:53.140Z,17.14
2024-05-09T13:02:55.323Z,17.23
2024-05-09T13:04:57.177Z,17.16
2024-05-09T13:06:59.007Z,17.11
2024-05-09T13:09:04.087Z,17.17
2024-05-09T13:11:05.887Z,17.40
2024-05-09T13:13:09.528Z,17.42
2024-05-09T13:15:11.349Z,17.24
2024-05-09T13:17:13.223Z,17.77
2024-05-09T13:19:15.092Z,17.91
2024-05-09T13:21:16.794Z,17.95
2024-05-09T13:23:18.531Z,18.04
2024-05-09T13:25:23.043Z,17.70
2024-05-09T13:27:25.084Z,17.41
2024-05-09T13:29:26.782Z,17.68
2024-05-09T13:31:28.594Z,18.00
2024-05-09T13:33:30.553Z,18.35
2024-05-09T13:35:32.466Z,18.31
2024-05-09T13:37:34.228Z,18.85
2024-05-09T13:39:36.136Z,19.41
2024-05-09T13:41:40.519Z,19.40
2024-05-09T13:43:42.216Z,19.38
2024-05-09T13:45:44.250Z,19.46
2024-05-09T13:47:46.102Z,19.40
2024-05-09T13:49:48.247Z,19.14
2024-05-09T13:51:49.984Z,19.07
2024-05-09T13:53:51.635Z,19.07
2024-05-09T13:55:53.323Z,19.10
2024-05-09T13:57:57.746Z,19.32
2024-05-09T13:59:59.584Z,19.21
2024-05-09T14:02:01.402Z,19.47
2024-05-09T14:04:03.810Z,19.72
2024-05-09T14:06:07.597Z,20.05
2024-05-09T14:08:10.992Z,20.26
2024-05-09T14:10:22.562Z,20.46
2024-05-09T14:12:27.686Z,20.49
2024-05-09T14:14:31.974Z,20.54
2024-05-09T14:16:33.861Z,20.57
2024-05-09T14:18:35.721Z,20.37
2024-05-09T14:20:37.457Z,20.03
2024-05-09T14:22:39.225Z,19.81
2024-05-09T14:24:40.954Z,20.03
2024-05-09T14:26:42.715Z,20.28
2024-05-09T14:28:44.399Z,20.61
2024-05-09T14:30:48.893Z,20.81
2024-05-09T14:32:50.737Z,21.11
2024-05-09T14:34:52.489Z,20.91
2024-05-09T14:36:54.706Z,21.32
2024-05-09T14:38:56.678Z,21.47
2024-05-09T14:40:58.484Z,20.96
2024-05-09T14:43:02.796Z,20.64
2024-05-09T14:45:05.470Z,20.29
2024-05-09T14:47:09.899Z,19.94
2024-05-09T14:49:12.691Z,19.92
2024-05-09T14:51:14.495Z,19.31
2024-05-09T14:53:16.275Z,19.44
2024-05-09T14:55:18.023Z,19.45
2024-05-09T14:57:19.942Z,19.22
2024-05-09T14:59:21.603Z,19.54
2024-05-09T15:01:23.316Z,19.63
2024-05-09T15:03:27.656Z,19.79
2024-05-09T15:05:29.393Z,20.27
2024-05-09T15:07:31.258Z,20.98
2024-05-09T15:09:35.767Z,21.49
2024-05-09T15:11:37.514Z,21.98
2024-05-09T15:13:39.209Z,21.68
2024-05-09T15:15:40.917Z,21.81
2024-05-09T15:17:42.796Z,21.87
2024-05-09T15:19:47.561Z,22.12
2024-05-09T15:21:49.413Z,22.60
2024-05-09T15:23:51.114Z,22.20
2024-05-09T15:25:53.134Z,21.66
2024-05-09T15:27:54.959Z,21.11
2024-05-09T15:29:56.719Z,20.83
2024-05-09T15:31:58.377Z,20.68
2024-05-09T15:34:00.333Z,20.01
2024-05-09T15:36:05.186Z,19.95
2024-05-09T15:38:07.357Z,19.97
2024-05-09T15:40:15.186Z,20.08
2024-05-09T15:42:23.503Z,20.34
2024-05-09T15:44:25.487Z,20.90
2024-05-09T15:46:27.328Z,21.37
2024-05-09T15:48:29.175Z,21.77
2024-05-09T15:50:37.754Z,22.04
2024-05-09T15:52:45.165Z,22.27
2024-05-09T15:54:46.947Z,22.07
2024-05-09T15:56:48.950Z,22.60
2024-05-09T15:58:50.695Z,22.85
2024-05-09T16:00:52.746Z,23.35
2024-05-09T16:02:54.592Z,23.13
2024-05-09T16:04:56.429Z,23.24
2024-05-09T16:06:58.248Z,23.45
2024-05-09T16:09:03.101Z,23.30
2024-05-09T16:11:05.410Z,23.07
2024-05-09T16:13:07.256Z,22.51
2024-05-09T16:15:08.939Z,21.97
2024-05-09T16:17:10.922Z,21.93
2024-05-09T16:19:13.206Z,21.41
2024-05-09T16:21:15.106Z,21.29
2024-05-09T16:23:16.861Z,21.54
2024-05-09T16:25:21.410Z,21.49
2024-05-09T16:27:23.544Z,21.74
2024-05-09T16:29:25.687Z,21.45
2024-05-09T16:31:27.431Z,20.86
2024-05-09T16:33:29.375Z,20.54
2024-05-09T16:35:31.235Z,20.43
2024-05-09T16:37:33.047Z,20.31
2024-05-09T16:39:34.778Z,20.48
2024-05-09T16:41:39.122Z,20.60
2024-05-09T16:43:40.978Z,20.16
2024-05-09T16:45:44.092Z,20.39
2024-05-09T16:47:46.150Z,20.23
2024-05-09T16:49:47.842Z,19.84
2024-05-09T16:51:49.558Z,19.85
2024-05-09T16:53:51.464Z,19.41
2024-05-09T16:55:53.382Z,19.89
2024-05-09T16:57:58.343Z,20.44
2024-05-09T17:00:00.137Z,20.85
2024-05-09T17:02:02.008Z,21.39
2024-05-09T17:04:04.264Z,21.54
2024-05-09T17:06:06.364Z,21.73
2024-05-09T17:08:08.647Z,21.65
2024-05-09T17:10:19.110Z,21.36
2024-05-09T17:12:25.868Z,21.09
2024-05-09T17:14:30.156Z,21.03
2024-05-09T17:16:32.097Z,20.94
2024-05-09T17:18:34.199Z,20.71
2024-05-09T17:20:37.456Z,20.36
2024-05-09T17:22:39.610Z,20.24
2024-05-09T17:24:41.416Z,20.26
2024-05-09T17:26:43.114Z,20.12
2024-05-09T17:28:44.821Z,19.52
2024-05-09T17:30:49.612Z,19.28
2024-05-09T17:32:51.560Z,19.20
2024-05-09T17:34:53.319Z,18.37
2024-05-09T17:36:55.169Z,18.65
2024-05-09T17:38:56.912Z,18.80
2024-05-09T17:40:58.936Z,18.46
2024-05-09T17:43:00.950Z,18.38
2024-05-09T17:45:02.725Z,18.54
2024-05-09T17:47:07.167Z,18.61
2024-05-09T17:49:09.160Z,18.55
2024-05-09T17:51:10.888Z,18.49
2024-05-09T17:53:12.569Z,18.49
2024-05-09T17:55:14.482Z,18.30
2024-05-09T17:57:16.285Z,18.24
2024-05-09T17:59:18.019Z,18.26
2024-05-09T18:01:19.876Z,17.93
2024-05-09T18:03:24.300Z,17.96
2024-05-09T18:05:26.296Z,18.05
2024-05-09T18:07:28.056Z,18.09
2024-05-09T18:09:29.736Z,18.01
2024-05-09T18:11:31.593Z,17.96
2024-05-09T18:13:33.430Z,18.06
2024-05-09T18:15:35.247Z,17.96
2024-05-09T18:17:37.371Z,17.90
2024-05-09T18:19:41.803Z,17.74
2024-05-09T18:21:43.572Z,17.73
2024-05-09T18:23:45.301Z,17.65
2024-05-09T18:25:47.858Z,17.75
2024-05-09T18:27:50.127Z,17.70
2024-05-09T18:29:51.838Z,17.56
2024-05-09T18:31:53.565Z,17.46
2024-05-09T18:33:55.523Z,17.39
2024-05-09T18:35:59.976Z,17.22
2024-05-09T18:38:01.904Z,17.35
2024-05-09T18:40:05.672Z,17.33
2024-05-09T18:42:07.558Z,17.19
2024-05-09T18:44:09.299Z,17.23
2024-05-09T18:46:11.127Z,17.07
2024-05-09T18:48:13.440Z,17.15
2024-05-09T18:50:24.375Z,17.12
2024-05-09T18:52:36.063Z,16.99
2024-05-09T18:54:37.928Z,16.89
2024-05-09T18:56:40.644Z,16.81
2024-05-09T18:58:42.443Z,16.74
2024-05-09T19:00:46.673Z,16.67
2024-05-09T19:02:51.079Z,16.59
2024-05-09T19:04:53.097Z,16.56
2024-05-09T19:06:55.097Z,16.57
2024-05-09T19:09:00.606Z,16.51
2024-05-09T19:11:02.402Z,16.42
2024-05-09T19:13:09.094Z,16.38
2024-05-09T19:15:14.084Z,16.35
2024-05-09T19:17:15.906Z,16.25
2024-05-09T19:19:17.753Z,16.21
2024-05-09T19:21:19.538Z,16.13
2024-05-09T19:23:21.569Z,16.14
2024-05-09T19:25:25.929Z,16.00
2024-05-09T19:27:27.602Z,16.03
2024-05-09T19:29:29.428Z,15.96
2024-05-09T19:31:31.338Z,16.04
2024-05-09T19:33:33.184Z,15.92
2024-05-09T19:35:34.986Z,15.79
2024-05-09T19:37:36.846Z,15.87
2024-05-09T19:39:38.562Z,15.69
2024-05-09T19:41:42.974Z,15.41
2024-05-09T19:43:44.720Z,15.60
2024-05-09T19:45:46.467Z,15.51
2024-05-09T19:47:48.462Z,15.44
2024-05-09T19:49:50.329Z,15.32
2024-05-09T19:51:52.092Z,15.26
2024-05-09T19:53:53.760Z,15.17
2024-05-09T19:55:55.503Z,15.15
2024-05-09T19:58:01.633Z,15.13
2024-05-09T20:00:06.181Z,15.14
2024-05-09T20:02:09.535Z,15.07
2024-05-09T20:04:11.562Z,15.01
2024-05-09T20:06:13.433Z,15.14
2024-05-09T20:08:15.185Z,15.11
2024-05-09T20:10:23.662Z,14.91
2024-05-09T20:12:28.430Z,14.93
2024-05-09T20:14:32.779Z,14.84
2024-05-09T20:16:34.555Z,14.77
2024-05-09T20:18:37.311Z,14.68
2024-05-09T20:20:42.398Z,14.64
2024-05-09T20:22:45.806Z,14.68
2024-05-09T20:24:47.493Z,14.42
2024-05-09T20:26:49.331Z,14.55
2024-05-09T20:28:52.157Z,14.60
2024-05-09T20:30:56.846Z,14.65
2024-05-09T20:32:58.745Z,14.53
2024-05-09T20:35:00.519Z,14.49
2024-05-09T20:37:02.307Z,14.26
2024-05-09T20:39:04.218Z,14.48
2024-05-09T20:41:05.945Z,14.63
2024-05-09T20:43:08.539Z,14.45
2024-05-09T20:45:10.453Z,14.53
2024-05-09T20:47:14.766Z,14.38
2024-05-09T20:49:16.908Z,14.34
2024-05-09T20:51:18.908Z,14.31
2024-05-09T20:53:20.589Z,14.23
2024-05-09T20:55:22.387Z,14.13
2024-05-09T20:57:24.127Z,14.07
2024-05-09T20:59:25.853Z,13.94
2024-05-09T21:01:27.616Z,14.09
2024-05-09T21:03:32.137Z,14.07
2024-05-09T21:05:34.654Z,14.10
2024-05-09T21:07:36.968Z,14.01
2024-05-09T21:09:38.860Z,13.98
2024-05-09T21:11:40.846Z,13.89
2024-05-09T21:13:42.649Z,13.85
2024-05-09T21:15:44.379Z,13.71
2024-05-09T21:17:46.264Z,13.77
2024-05-09T21:19:50.915Z,13.50
2024-05-09T21:21:53.454Z,13.65
2024-05-09T21:23:55.348Z,13.83
2024-05-09T21:25:57.183Z,13.74
2024-05-09T21:27:59.410Z,13.28
2024-05-09T21:30:07.618Z,13.06
2024-05-09T21:32:11.541Z,13.34
2024-05-09T21:34:13.424Z,13.28
2024-05-09T21:36:17.917Z,13.19
2024-05-09T21:38:19.849Z,13.29
2024-05-09T21:40:31.153Z,13.13
2024-05-09T21:42:36.271Z,13.12
2024-05-09T21:44:37.952Z,13.11
2024-05-09T21:46:39.775Z,13.06
2024-05-09T21:48:41.726Z,12.95
2024-05-09T21:50:43.561Z,12.93
2024-05-09T21:52:47.896Z,12.99
2024-05-09T21:54:49.628Z,12.84
2024-05-09T21:56:53.125Z,12.67
2024-05-09T21:58:54.903Z,12.73
2024-05-09T22:00:56.683Z,12.78
2024-05-09T22:02:58.446Z,12.74
2024-05-09T22:05:00.585Z,12.71
2024-05-09T22:07:02.560Z,12.79
2024-05-09T22:09:06.918Z,12.65
2024-05-09T22:11:08.773Z,12.72
2024-05-09T22:13:10.557Z,12.58
2024-05-09T22:15:12.327Z,12.61
2024-05-09T22:17:14.106Z,12.60
2024-05-09T22:19:16.752Z,12.71
2024-05-09T22:21:19.049Z,12.41
2024-05-09T22:23:21.002Z,12.54
2024-05-09T22:25:27.270Z,12.53
2024-05-09T22:27:30.539Z,12.43
2024-05-09T22:29:32.275Z,12.34
2024-05-09T22:31:33.967Z,12.21
2024-05-09T22:33:35.764Z,12.16
2024-05-09T22:35:37.885Z,12.11
2024-05-09T22:37:39.533Z,12.11
2024-05-09T22:39:41.221Z,12.15
2024-05-09T22:41:45.563Z,12.00
2024-05-09T22:43:47.267Z,12.24
2024-05-09T22:45:48.979Z,11.99
2024-05-09T22:47:50.942Z,11.96
2024-05-09T22:49:52.814Z,11.89
2024-05-09T22:51:54.578Z,11.85
2024-05-09T22:53:56.317Z,11.88
2024-05-09T22:55:58.091Z,11.86
2024-05-09T22:58:02.507Z,11.97
2024-05-09T23:00:06.316Z,12.01
2024-05-09T23:02:08.190Z,12.04
2024-05-09T23:04:10.169Z,11.90
2024-05-09T23:06:12.037Z,11.83
2024-05-09T23:08:13.794Z,11.63
2024-05-09T23:10:21.407Z,11.66
2024-05-09T23:12:29.629Z,11.53
2024-05-09T23:14:33.944Z,11.69
2024-05-09T23:16:35.680Z,11.66
2024-05-09T23:18:37.503Z,11.56
2024-05-09T23:20:40.269Z,11.47
2024-05-09T23:22:42.243Z,11.47
2024-05-09T23:24:43.952Z,11.42
2024-05-09T23:26:45.684Z,11.55
2024-05-09T23:28:48.051Z,11.59
2024-05-09T23:30:52.467Z,11.39
2024-05-09T23:32:54.248Z,11.46
2024-05-09T23:34:56.272Z,11.39
2024-05-09T23:36:58.108Z,11.35
2024-05-09T23:39:00.087Z,11.50
2024-05-09T23:41:01.907Z,11.29
2024-05-09T23:43:03.863Z,11.29
2024-05-09T23:45:06.809Z,11.20
2024-05-09T23:47:11.221Z,11.21
2024-05-09T23:49:12.998Z,11.28
2024-05-09T23:51:14.954Z,11.27
2024-05-09T23:53:16.666Z,10.97
2024-05-09T23:55:18.555Z,10.84
2024-05-09T23:57:20.421Z,10.85
2024-05-09T23:59:22.092Z,10.93
